sensor_id;sensor_type;location;lat;lon;timestamp;P1;durP1;ratioP1;P2;durP2;ratioP2
15132;SDS011;7667;51.232;17.110;2023-02-26T00:01:40;4.80;;;3.47;;
15132;SDS011;7667;51.232;17.110;2023-02-26T00:04:08;3.57;;;2.73;;
15132;SDS011;7667;51.232;17.110;2023-02-26T00:06:37;3.47;;;2.87;;
15132;SDS011;7667;51.232;17.110;2023-02-26T00:09:23;3.73;;;2.90;;
15132;SDS011;7667;51.232;17.110;2023-02-26T00:11:51;4.20;;;3.20;;
15132;SDS011;7667;51.232;17.110;2023-02-26T00:14:19;4.17;;;3.43;;
15132;SDS011;7667;51.232;17.110;2023-02-26T00:19:44;4.47;;;3.20;;
15132;SDS011;7667;51.232;17.110;2023-02-26T00:22:11;6.53;;;3.23;;
15132;SDS011;7667;51.232;17.110;2023-02-26T00:24:39;4.10;;;3.13;;
15132;SDS011;7667;51.232;17.110;2023-02-26T00:27:08;5.20;;;3.03;;
15132;SDS011;7667;51.232;17.110;2023-02-26T00:29:38;4.13;;;3.40;;
15132;SDS011;7667;51.232;17.110;2023-02-26T00:32:06;3.20;;;2.90;;
15132;SDS011;7667;51.232;17.110;2023-02-26T00:34:35;3.40;;;2.83;;
15132;SDS011;7667;51.232;17.110;2023-02-26T00:37:09;3.70;;;3.20;;
15132;SDS011;7667;51.232;17.110;2023-02-26T00:45:53;3.97;;;2.83;;
15132;SDS011;7667;51.232;17.110;2023-02-26T00:48:43;3.80;;;2.87;;
15132;SDS011;7667;51.232;17.110;2023-02-26T00:51:54;3.67;;;2.70;;
15132;SDS011;7667;51.232;17.110;2023-02-26T00:54:26;4.27;;;3.13;;
15132;SDS011;7667;51.232;17.110;2023-02-26T00:56:56;3.20;;;2.77;;
15132;SDS011;7667;51.232;17.110;2023-02-26T00:59:25;3.40;;;2.63;;
15132;SDS011;7667;51.232;17.110;2023-02-26T01:01:52;3.80;;;2.93;;
15132;SDS011;7667;51.232;17.110;2023-02-26T01:04:21;4.30;;;3.43;;
15132;SDS011;7667;51.232;17.110;2023-02-26T01:06:51;4.03;;;2.90;;
15132;SDS011;7667;51.232;17.110;2023-02-26T01:09:30;4.50;;;3.43;;
15132;SDS011;7667;51.232;17.110;2023-02-26T01:12:00;4.17;;;3.03;;
15132;SDS011;7667;51.232;17.110;2023-02-26T01:14:34;4.13;;;3.20;;
15132;SDS011;7667;51.232;17.110;2023-02-26T01:17:05;5.00;;;3.10;;
15132;SDS011;7667;51.232;17.110;2023-02-26T01:19:47;4.07;;;2.70;;
15132;SDS011;7667;51.232;17.110;2023-02-26T01:29:06;5.37;;;3.40;;
15132;SDS011;7667;51.232;17.110;2023-02-26T01:31:39;4.30;;;3.07;;
15132;SDS011;7667;51.232;17.110;2023-02-26T01:37:13;4.73;;;3.27;;
15132;SDS011;7667;51.232;17.110;2023-02-26T01:40:05;3.77;;;3.13;;
15132;SDS011;7667;51.232;17.110;2023-02-26T01:43:16;4.27;;;3.10;;
15132;SDS011;7667;51.232;17.110;2023-02-26T01:45:59;4.10;;;3.50;;
15132;SDS011;7667;51.232;17.110;2023-02-26T01:48:52;3.37;;;2.80;;
15132;SDS011;7667;51.232;17.110;2023-02-26T01:51:44;3.97;;;3.40;;
15132;SDS011;7667;51.232;17.110;2023-02-26T01:54:14;3.20;;;2.90;;
15132;SDS011;7667;51.232;17.110;2023-02-26T01:56:48;3.63;;;3.30;;
15132;SDS011;7667;51.232;17.110;2023-02-26T01:59:22;4.70;;;3.37;;
15132;SDS011;7667;51.232;17.110;2023-02-26T02:01:53;4.03;;;3.33;;
15132;SDS011;7667;51.232;17.110;2023-02-26T02:04:23;5.20;;;3.37;;
15132;SDS011;7667;51.232;17.110;2023-02-26T02:06:53;3.43;;;3.07;;
15132;SDS011;7667;51.232;17.110;2023-02-26T02:09:21;4.33;;;3.07;;
15132;SDS011;7667;51.232;17.110;2023-02-26T02:11:56;4.03;;;3.33;;
15132;SDS011;7667;51.232;17.110;2023-02-26T02:25:43;3.77;;;3.10;;
15132;SDS011;7667;51.232;17.110;2023-02-26T02:31:15;3.23;;;2.90;;
15132;SDS011;7667;51.232;17.110;2023-02-26T02:36:28;2.80;;;2.33;;
15132;SDS011;7667;51.232;17.110;2023-02-26T02:42:03;3.90;;;2.60;;
15132;SDS011;7667;51.232;17.110;2023-02-26T02:45:07;3.80;;;2.67;;
15132;SDS011;7667;51.232;17.110;2023-02-26T02:48:11;3.10;;;2.80;;
15132;SDS011;7667;51.232;17.110;2023-02-26T02:50:55;3.70;;;2.77;;
15132;SDS011;7667;51.232;17.110;2023-02-26T02:53:42;2.77;;;2.30;;
15132;SDS011;7667;51.232;17.110;2023-02-26T02:56:26;2.60;;;2.40;;
15132;SDS011;7667;51.232;17.110;2023-02-26T03:04:43;3.53;;;2.13;;
15132;SDS011;7667;51.232;17.110;2023-02-26T03:07:11;2.57;;;2.07;;
15132;SDS011;7667;51.232;17.110;2023-02-26T03:09:39;2.93;;;2.20;;
15132;SDS011;7667;51.232;17.110;2023-02-26T03:12:08;3.53;;;2.20;;
15132;SDS011;7667;51.232;17.110;2023-02-26T03:14:35;3.03;;;2.17;;
15132;SDS011;7667;51.232;17.110;2023-02-26T03:17:50;3.20;;;2.10;;
15132;SDS011;7667;51.232;17.110;2023-02-26T03:20:18;3.57;;;2.53;;
15132;SDS011;7667;51.232;17.110;2023-02-26T03:29:32;2.80;;;2.07;;
15132;SDS011;7667;51.232;17.110;2023-02-26T03:32:28;2.90;;;2.20;;
15132;SDS011;7667;51.232;17.110;2023-02-26T03:38:33;2.70;;;2.07;;
15132;SDS011;7667;51.232;17.110;2023-02-26T03:41:11;2.60;;;2.07;;
15132;SDS011;7667;51.232;17.110;2023-02-26T03:43:46;2.80;;;2.17;;
15132;SDS011;7667;51.232;17.110;2023-02-26T03:46:43;3.07;;;2.20;;
15132;SDS011;7667;51.232;17.110;2023-02-26T03:49:23;2.00;;;1.80;;
15132;SDS011;7667;51.232;17.110;2023-02-26T03:52:19;4.90;;;2.20;;
15132;SDS011;7667;51.232;17.110;2023-02-26T03:55:12;1.70;;;1.60;;
15132;SDS011;7667;51.232;17.110;2023-02-26T03:57:42;2.93;;;2.00;;
15132;SDS011;7667;51.232;17.110;2023-02-26T04:00:10;2.20;;;2.00;;
15132;SDS011;7667;51.232;17.110;2023-02-26T04:02:42;2.13;;;1.83;;
15132;SDS011;7667;51.232;17.110;2023-02-26T04:05:29;3.10;;;2.53;;
15132;SDS011;7667;51.232;17.110;2023-02-26T04:08:11;2.57;;;1.80;;
15132;SDS011;7667;51.232;17.110;2023-02-26T04:10:45;2.73;;;2.40;;
15132;SDS011;7667;51.232;17.110;2023-02-26T04:13:26;2.17;;;1.93;;
15132;SDS011;7667;51.232;17.110;2023-02-26T04:15:53;2.80;;;2.00;;
15132;SDS011;7667;51.232;17.110;2023-02-26T04:18:21;2.00;;;1.70;;
15132;SDS011;7667;51.232;17.110;2023-02-26T04:20:49;2.40;;;1.70;;
15132;SDS011;7667;51.232;17.110;2023-02-26T04:23:16;2.77;;;2.20;;
15132;SDS011;7667;51.232;17.110;2023-02-26T04:25:44;3.83;;;3.43;;
15132;SDS011;7667;51.232;17.110;2023-02-26T04:28:12;2.80;;;1.80;;
15132;SDS011;7667;51.232;17.110;2023-02-26T04:30:40;2.07;;;1.70;;
15132;SDS011;7667;51.232;17.110;2023-02-26T04:33:07;4.33;;;1.80;;
15132;SDS011;7667;51.232;17.110;2023-02-26T04:35:35;2.03;;;1.70;;
15132;SDS011;7667;51.232;17.110;2023-02-26T04:38:02;1.77;;;1.67;;
15132;SDS011;7667;51.232;17.110;2023-02-26T04:40:30;2.23;;;2.03;;
15132;SDS011;7667;51.232;17.110;2023-02-26T04:42:58;2.30;;;2.00;;
15132;SDS011;7667;51.232;17.110;2023-02-26T04:45:25;2.53;;;1.70;;
15132;SDS011;7667;51.232;17.110;2023-02-26T04:47:53;2.40;;;2.07;;
15132;SDS011;7667;51.232;17.110;2023-02-26T04:50:20;1.93;;;1.50;;
15132;SDS011;7667;51.232;17.110;2023-02-26T04:52:48;2.73;;;2.10;;
15132;SDS011;7667;51.232;17.110;2023-02-26T04:55:15;2.60;;;1.80;;
15132;SDS011;7667;51.232;17.110;2023-02-26T04:57:43;3.20;;;1.60;;
15132;SDS011;7667;51.232;17.110;2023-02-26T05:00:11;2.83;;;1.70;;
15132;SDS011;7667;51.232;17.110;2023-02-26T05:02:39;1.90;;;1.40;;
15132;SDS011;7667;51.232;17.110;2023-02-26T05:05:07;2.70;;;1.90;;
15132;SDS011;7667;51.232;17.110;2023-02-26T05:07:35;2.27;;;1.50;;
15132;SDS011;7667;51.232;17.110;2023-02-26T05:10:03;1.80;;;1.60;;
15132;SDS011;7667;51.232;17.110;2023-02-26T05:12:32;2.70;;;1.60;;
15132;SDS011;7667;51.232;17.110;2023-02-26T05:15:00;1.90;;;1.30;;
15132;SDS011;7667;51.232;17.110;2023-02-26T05:17:28;3.23;;;1.77;;
15132;SDS011;7667;51.232;17.110;2023-02-26T05:19:55;2.17;;;1.63;;
15132;SDS011;7667;51.232;17.110;2023-02-26T05:22:23;2.47;;;1.67;;
15132;SDS011;7667;51.232;17.110;2023-02-26T05:24:50;2.13;;;1.70;;
15132;SDS011;7667;51.232;17.110;2023-02-26T05:27:18;2.73;;;1.60;;
15132;SDS011;7667;51.232;17.110;2023-02-26T05:29:45;2.40;;;1.70;;
15132;SDS011;7667;51.232;17.110;2023-02-26T05:32:12;1.70;;;1.50;;
15132;SDS011;7667;51.232;17.110;2023-02-26T05:34:41;1.70;;;1.47;;
15132;SDS011;7667;51.232;17.110;2023-02-26T05:37:08;3.17;;;2.00;;
15132;SDS011;7667;51.232;17.110;2023-02-26T05:39:35;2.87;;;1.97;;
15132;SDS011;7667;51.232;17.110;2023-02-26T05:42:03;2.33;;;1.90;;
15132;SDS011;7667;51.232;17.110;2023-02-26T05:44:30;2.10;;;1.70;;
15132;SDS011;7667;51.232;17.110;2023-02-26T05:46:58;2.43;;;1.70;;
15132;SDS011;7667;51.232;17.110;2023-02-26T05:49:25;3.33;;;1.83;;
15132;SDS011;7667;51.232;17.110;2023-02-26T05:51:53;2.37;;;1.90;;
15132;SDS011;7667;51.232;17.110;2023-02-26T05:54:20;2.73;;;1.80;;
15132;SDS011;7667;51.232;17.110;2023-02-26T05:56:48;3.97;;;1.77;;
15132;SDS011;7667;51.232;17.110;2023-02-26T05:59:16;3.30;;;1.70;;
15132;SDS011;7667;51.232;17.110;2023-02-26T06:01:43;2.07;;;1.80;;
15132;SDS011;7667;51.232;17.110;2023-02-26T06:04:11;3.20;;;2.23;;
15132;SDS011;7667;51.232;17.110;2023-02-26T06:06:38;2.63;;;1.70;;
15132;SDS011;7667;51.232;17.110;2023-02-26T06:09:06;2.63;;;2.00;;
15132;SDS011;7667;51.232;17.110;2023-02-26T06:11:34;2.90;;;1.73;;
15132;SDS011;7667;51.232;17.110;2023-02-26T06:14:01;1.97;;;1.63;;
15132;SDS011;7667;51.232;17.110;2023-02-26T06:16:29;2.33;;;2.10;;
15132;SDS011;7667;51.232;17.110;2023-02-26T06:18:58;3.10;;;2.07;;
15132;SDS011;7667;51.232;17.110;2023-02-26T06:21:25;2.47;;;2.20;;
15132;SDS011;7667;51.232;17.110;2023-02-26T06:23:53;2.10;;;1.90;;
15132;SDS011;7667;51.232;17.110;2023-02-26T06:26:21;3.23;;;1.87;;
15132;SDS011;7667;51.232;17.110;2023-02-26T06:28:49;3.20;;;2.00;;
15132;SDS011;7667;51.232;17.110;2023-02-26T06:31:17;2.83;;;1.80;;
15132;SDS011;7667;51.232;17.110;2023-02-26T06:33:44;2.87;;;2.00;;
15132;SDS011;7667;51.232;17.110;2023-02-26T06:36:12;2.80;;;2.33;;
15132;SDS011;7667;51.232;17.110;2023-02-26T06:38:40;6.23;;;3.93;;
15132;SDS011;7667;51.232;17.110;2023-02-26T06:41:07;6.80;;;4.23;;
15132;SDS011;7667;51.232;17.110;2023-02-26T06:43:35;9.97;;;5.63;;
15132;SDS011;7667;51.232;17.110;2023-02-26T06:46:03;6.20;;;4.37;;
15132;SDS011;7667;51.232;17.110;2023-02-26T06:48:31;9.40;;;4.93;;
15132;SDS011;7667;51.232;17.110;2023-02-26T06:50:59;7.00;;;4.63;;
15132;SDS011;7667;51.232;17.110;2023-02-26T06:53:26;6.67;;;4.27;;
15132;SDS011;7667;51.232;17.110;2023-02-26T06:55:54;6.17;;;4.17;;
15132;SDS011;7667;51.232;17.110;2023-02-26T06:58:21;5.00;;;3.90;;
15132;SDS011;7667;51.232;17.110;2023-02-26T07:00:49;3.60;;;2.60;;
15132;SDS011;7667;51.232;17.110;2023-02-26T07:03:17;2.83;;;2.00;;
15132;SDS011;7667;51.232;17.110;2023-02-26T07:05:45;4.90;;;2.90;;
15132;SDS011;7667;51.232;17.110;2023-02-26T07:08:13;3.30;;;2.30;;
15132;SDS011;7667;51.232;17.110;2023-02-26T07:10:40;2.50;;;2.10;;
15132;SDS011;7667;51.232;17.110;2023-02-26T07:13:08;2.73;;;2.33;;
15132;SDS011;7667;51.232;17.110;2023-02-26T07:15:36;2.73;;;2.30;;
15132;SDS011;7667;51.232;17.110;2023-02-26T07:18:03;4.13;;;2.87;;
15132;SDS011;7667;51.232;17.110;2023-02-26T07:20:31;2.70;;;2.00;;
15132;SDS011;7667;51.232;17.110;2023-02-26T07:23:00;3.77;;;2.17;;
15132;SDS011;7667;51.232;17.110;2023-02-26T07:25:28;2.87;;;2.20;;
15132;SDS011;7667;51.232;17.110;2023-02-26T07:27:56;11.67;;;10.60;;
15132;SDS011;7667;51.232;17.110;2023-02-26T07:30:25;3.13;;;2.83;;
15132;SDS011;7667;51.232;17.110;2023-02-26T07:32:53;3.23;;;2.43;;
15132;SDS011;7667;51.232;17.110;2023-02-26T07:35:21;3.20;;;2.23;;
15132;SDS011;7667;51.232;17.110;2023-02-26T07:37:48;3.20;;;2.63;;
15132;SDS011;7667;51.232;17.110;2023-02-26T07:40:17;7.53;;;5.80;;
15132;SDS011;7667;51.232;17.110;2023-02-26T07:42:45;3.03;;;2.40;;
15132;SDS011;7667;51.232;17.110;2023-02-26T07:45:12;3.63;;;2.87;;
15132;SDS011;7667;51.232;17.110;2023-02-26T07:47:43;3.73;;;2.40;;
15132;SDS011;7667;51.232;17.110;2023-02-26T07:50:10;3.87;;;2.80;;
15132;SDS011;7667;51.232;17.110;2023-02-26T07:52:38;3.20;;;2.73;;
15132;SDS011;7667;51.232;17.110;2023-02-26T07:55:07;7.60;;;4.73;;
15132;SDS011;7667;51.232;17.110;2023-02-26T07:57:36;7.57;;;5.33;;
15132;SDS011;7667;51.232;17.110;2023-02-26T08:00:04;3.87;;;2.70;;
15132;SDS011;7667;51.232;17.110;2023-02-26T08:02:35;6.67;;;4.20;;
15132;SDS011;7667;51.232;17.110;2023-02-26T08:05:02;4.53;;;3.50;;
15132;SDS011;7667;51.232;17.110;2023-02-26T08:07:30;6.20;;;3.40;;
15132;SDS011;7667;51.232;17.110;2023-02-26T08:09:58;4.53;;;3.70;;
15132;SDS011;7667;51.232;17.110;2023-02-26T08:12:25;5.13;;;4.20;;
15132;SDS011;7667;51.232;17.110;2023-02-26T08:14:53;3.30;;;3.00;;
15132;SDS011;7667;51.232;17.110;2023-02-26T08:17:20;4.70;;;3.53;;
15132;SDS011;7667;51.232;17.110;2023-02-26T08:19:48;3.83;;;2.60;;
15132;SDS011;7667;51.232;17.110;2023-02-26T08:22:15;4.67;;;3.90;;
15132;SDS011;7667;51.232;17.110;2023-02-26T08:24:43;5.13;;;3.93;;
15132;SDS011;7667;51.232;17.110;2023-02-26T08:27:11;3.17;;;2.87;;
15132;SDS011;7667;51.232;17.110;2023-02-26T08:29:39;7.00;;;3.87;;
15132;SDS011;7667;51.232;17.110;2023-02-26T08:32:07;5.53;;;3.70;;
15132;SDS011;7667;51.232;17.110;2023-02-26T08:34:35;6.50;;;4.37;;
15132;SDS011;7667;51.232;17.110;2023-02-26T08:37:02;7.30;;;5.30;;
15132;SDS011;7667;51.232;17.110;2023-02-26T08:39:30;7.57;;;5.37;;
15132;SDS011;7667;51.232;17.110;2023-02-26T08:42:00;3.57;;;3.20;;
15132;SDS011;7667;51.232;17.110;2023-02-26T08:44:28;4.53;;;3.43;;
15132;SDS011;7667;51.232;17.110;2023-02-26T08:46:56;4.40;;;3.20;;
15132;SDS011;7667;51.232;17.110;2023-02-26T08:49:23;3.50;;;2.90;;
15132;SDS011;7667;51.232;17.110;2023-02-26T08:51:51;3.57;;;3.10;;
15132;SDS011;7667;51.232;17.110;2023-02-26T08:54:18;5.50;;;3.87;;
15132;SDS011;7667;51.232;17.110;2023-02-26T08:56:46;3.80;;;3.40;;
15132;SDS011;7667;51.232;17.110;2023-02-26T08:59:14;3.57;;;2.90;;
15132;SDS011;7667;51.232;17.110;2023-02-26T09:01:41;3.20;;;2.90;;
15132;SDS011;7667;51.232;17.110;2023-02-26T09:04:09;5.23;;;3.50;;
15132;SDS011;7667;51.232;17.110;2023-02-26T09:06:37;3.97;;;2.70;;
15132;SDS011;7667;51.232;17.110;2023-02-26T09:09:04;3.13;;;2.60;;
15132;SDS011;7667;51.232;17.110;2023-02-26T09:11:32;2.80;;;2.57;;
15132;SDS011;7667;51.232;17.110;2023-02-26T09:14:00;5.50;;;4.97;;
15132;SDS011;7667;51.232;17.110;2023-02-26T09:16:29;4.00;;;3.00;;
15132;SDS011;7667;51.232;17.110;2023-02-26T09:18:57;4.07;;;2.70;;
15132;SDS011;7667;51.232;17.110;2023-02-26T09:21:25;4.80;;;3.00;;
15132;SDS011;7667;51.232;17.110;2023-02-26T09:23:52;5.13;;;3.40;;
15132;SDS011;7667;51.232;17.110;2023-02-26T09:26:20;3.67;;;3.07;;
15132;SDS011;7667;51.232;17.110;2023-02-26T09:28:48;4.33;;;3.00;;
15132;SDS011;7667;51.232;17.110;2023-02-26T09:31:16;3.63;;;2.70;;
15132;SDS011;7667;51.232;17.110;2023-02-26T09:33:44;5.57;;;2.90;;
15132;SDS011;7667;51.232;17.110;2023-02-26T09:36:11;3.57;;;2.70;;
15132;SDS011;7667;51.232;17.110;2023-02-26T09:38:39;4.07;;;3.03;;
15132;SDS011;7667;51.232;17.110;2023-02-26T09:41:27;14.60;;;10.03;;
15132;SDS011;7667;51.232;17.110;2023-02-26T09:44:09;4.60;;;3.53;;
15132;SDS011;7667;51.232;17.110;2023-02-26T09:54:55;3.67;;;3.17;;
15132;SDS011;7667;51.232;17.110;2023-02-26T09:57:30;3.70;;;2.87;;
15132;SDS011;7667;51.232;17.110;2023-02-26T10:00:06;3.43;;;2.90;;
15132;SDS011;7667;51.232;17.110;2023-02-26T10:02:53;5.90;;;3.43;;
15132;SDS011;7667;51.232;17.110;2023-02-26T10:09:43;4.43;;;3.37;;
15132;SDS011;7667;51.232;17.110;2023-02-26T10:12:04;5.83;;;5.07;;
15132;SDS011;7667;51.232;17.110;2023-02-26T10:14:45;3.33;;;3.03;;
15132;SDS011;7667;51.232;17.110;2023-02-26T10:17:32;3.53;;;2.77;;
15132;SDS011;7667;51.232;17.110;2023-02-26T10:20:31;7.67;;;6.87;;
15132;SDS011;7667;51.232;17.110;2023-02-26T10:26:13;4.03;;;3.03;;
15132;SDS011;7667;51.232;17.110;2023-02-26T10:28:54;3.03;;;2.40;;
15132;SDS011;7667;51.232;17.110;2023-02-26T10:37:22;4.73;;;4.03;;
15132;SDS011;7667;51.232;17.110;2023-02-26T10:40:18;3.77;;;2.20;;
15132;SDS011;7667;51.232;17.110;2023-02-26T10:43:14;3.13;;;2.40;;
15132;SDS011;7667;51.232;17.110;2023-02-26T10:46:08;3.50;;;2.57;;
15132;SDS011;7667;51.232;17.110;2023-02-26T10:52:24;3.00;;;2.60;;
15132;SDS011;7667;51.232;17.110;2023-02-26T10:57:43;4.47;;;3.57;;
15132;SDS011;7667;51.232;17.110;2023-02-26T11:00:38;3.97;;;2.50;;
15132;SDS011;7667;51.232;17.110;2023-02-26T11:03:47;2.80;;;2.30;;
15132;SDS011;7667;51.232;17.110;2023-02-26T11:06:11;3.03;;;2.40;;
15132;SDS011;7667;51.232;17.110;2023-02-26T11:08:48;3.90;;;2.87;;
15132;SDS011;7667;51.232;17.110;2023-02-26T11:14:14;3.80;;;2.40;;
15132;SDS011;7667;51.232;17.110;2023-02-26T11:16:47;4.40;;;3.30;;
15132;SDS011;7667;51.232;17.110;2023-02-26T11:19:22;4.13;;;3.17;;
15132;SDS011;7667;51.232;17.110;2023-02-26T11:21:55;4.63;;;3.17;;
15132;SDS011;7667;51.232;17.110;2023-02-26T11:27:02;4.30;;;3.10;;
15132;SDS011;7667;51.232;17.110;2023-02-26T11:29:39;3.87;;;3.00;;
15132;SDS011;7667;51.232;17.110;2023-02-26T11:32:13;4.77;;;2.87;;
15132;SDS011;7667;51.232;17.110;2023-02-26T11:34:49;3.10;;;2.60;;
15132;SDS011;7667;51.232;17.110;2023-02-26T11:37:27;3.13;;;2.40;;
15132;SDS011;7667;51.232;17.110;2023-02-26T11:39:59;5.83;;;3.83;;
15132;SDS011;7667;51.232;17.110;2023-02-26T11:42:55;2.70;;;2.33;;
15132;SDS011;7667;51.232;17.110;2023-02-26T11:45:26;2.53;;;1.90;;
15132;SDS011;7667;51.232;17.110;2023-02-26T11:47:58;2.67;;;2.37;;
15132;SDS011;7667;51.232;17.110;2023-02-26T11:50:41;2.70;;;2.13;;
15132;SDS011;7667;51.232;17.110;2023-02-26T11:53:23;3.70;;;2.70;;
15132;SDS011;7667;51.232;17.110;2023-02-26T11:56:03;3.20;;;2.90;;
15132;SDS011;7667;51.232;17.110;2023-02-26T11:58:42;2.73;;;2.30;;
15132;SDS011;7667;51.232;17.110;2023-02-26T12:01:12;3.03;;;2.53;;
15132;SDS011;7667;51.232;17.110;2023-02-26T12:03:44;2.77;;;1.80;;
15132;SDS011;7667;51.232;17.110;2023-02-26T12:06:16;4.83;;;2.40;;
15132;SDS011;7667;51.232;17.110;2023-02-26T12:08:46;2.03;;;1.83;;
15132;SDS011;7667;51.232;17.110;2023-02-26T12:11:35;2.10;;;1.90;;
15132;SDS011;7667;51.232;17.110;2023-02-26T12:17:03;3.67;;;2.07;;
15132;SDS011;7667;51.232;17.110;2023-02-26T12:40:56;3.27;;;1.57;;
15132;SDS011;7667;51.232;17.110;2023-02-26T12:44:09;2.83;;;1.67;;
15132;SDS011;7667;51.232;17.110;2023-02-26T12:56:31;5.87;;;3.23;;
15132;SDS011;7667;51.232;17.110;2023-02-26T13:14:48;3.93;;;2.33;;
15132;SDS011;7667;51.232;17.110;2023-02-26T13:20:23;4.40;;;2.57;;
15132;SDS011;7667;51.232;17.110;2023-02-26T13:22:57;6.80;;;2.83;;
15132;SDS011;7667;51.232;17.110;2023-02-26T13:25:34;12.53;;;6.33;;
15132;SDS011;7667;51.232;17.110;2023-02-26T13:31:19;9.13;;;6.07;;
15132;SDS011;7667;51.232;17.110;2023-02-26T13:34:03;7.07;;;5.13;;
15132;SDS011;7667;51.232;17.110;2023-02-26T13:37:04;7.57;;;5.50;;
15132;SDS011;7667;51.232;17.110;2023-02-26T13:51:23;5.97;;;3.50;;
15132;SDS011;7667;51.232;17.110;2023-02-26T13:54:08;6.47;;;3.93;;
15132;SDS011;7667;51.232;17.110;2023-02-26T13:59:47;2.57;;;1.43;;
15132;SDS011;7667;51.232;17.110;2023-02-26T14:02:35;7.23;;;4.03;;
15132;SDS011;7667;51.232;17.110;2023-02-26T14:05:28;14.57;;;7.30;;
15132;SDS011;7667;51.232;17.110;2023-02-26T14:14:05;11.07;;;6.77;;
15132;SDS011;7667;51.232;17.110;2023-02-26T14:16:52;9.17;;;5.50;;
15132;SDS011;7667;51.232;17.110;2023-02-26T14:19:32;10.30;;;5.10;;
15132;SDS011;7667;51.232;17.110;2023-02-26T14:28:18;4.53;;;2.70;;
15132;SDS011;7667;51.232;17.110;2023-02-26T14:30:58;8.57;;;4.80;;
15132;SDS011;7667;51.232;17.110;2023-02-26T14:34:20;10.27;;;6.47;;
15132;SDS011;7667;51.232;17.110;2023-02-26T14:37:03;14.43;;;7.73;;
15132;SDS011;7667;51.232;17.110;2023-02-26T14:39:38;15.03;;;7.60;;
15132;SDS011;7667;51.232;17.110;2023-02-26T14:42:19;6.17;;;3.10;;
15132;SDS011;7667;51.232;17.110;2023-02-26T14:47:57;15.40;;;7.80;;
15132;SDS011;7667;51.232;17.110;2023-02-26T15:09:31;6.33;;;3.53;;
15132;SDS011;7667;51.232;17.110;2023-02-26T15:16:25;5.00;;;2.70;;
15132;SDS011;7667;51.232;17.110;2023-02-26T15:19:32;6.83;;;3.60;;
15132;SDS011;7667;51.232;17.110;2023-02-26T15:25:39;6.77;;;4.30;;
15132;SDS011;7667;51.232;17.110;2023-02-26T15:28:10;9.10;;;5.67;;
15132;SDS011;7667;51.232;17.110;2023-02-26T15:31:06;8.03;;;3.50;;
15132;SDS011;7667;51.232;17.110;2023-02-26T15:33:35;4.43;;;3.00;;
15132;SDS011;7667;51.232;17.110;2023-02-26T15:36:11;4.07;;;2.60;;
15132;SDS011;7667;51.232;17.110;2023-02-26T15:38:46;4.07;;;2.50;;
15132;SDS011;7667;51.232;17.110;2023-02-26T15:41:23;8.80;;;4.60;;
15132;SDS011;7667;51.232;17.110;2023-02-26T15:43:58;20.03;;;10.03;;
15132;SDS011;7667;51.232;17.110;2023-02-26T15:46:38;10.03;;;6.03;;
15132;SDS011;7667;51.232;17.110;2023-02-26T15:49:13;15.40;;;7.93;;
15132;SDS011;7667;51.232;17.110;2023-02-26T15:52:11;9.00;;;5.30;;
15132;SDS011;7667;51.232;17.110;2023-02-26T15:55:02;8.10;;;4.77;;
15132;SDS011;7667;51.232;17.110;2023-02-26T15:57:32;8.47;;;6.10;;
15132;SDS011;7667;51.232;17.110;2023-02-26T16:00:06;6.97;;;3.80;;
15132;SDS011;7667;51.232;17.110;2023-02-26T16:02:39;9.10;;;4.43;;
15132;SDS011;7667;51.232;17.110;2023-02-26T16:05:09;12.23;;;5.00;;
15132;SDS011;7667;51.232;17.110;2023-02-26T16:07:40;12.27;;;6.80;;
15132;SDS011;7667;51.232;17.110;2023-02-26T16:10:14;9.17;;;5.23;;
15132;SDS011;7667;51.232;17.110;2023-02-26T16:13:09;12.33;;;6.37;;
15132;SDS011;7667;51.232;17.110;2023-02-26T16:15:46;14.93;;;8.30;;
15132;SDS011;7667;51.232;17.110;2023-02-26T16:18:15;7.40;;;3.70;;
15132;SDS011;7667;51.232;17.110;2023-02-26T16:20:49;9.87;;;5.23;;
15132;SDS011;7667;51.232;17.110;2023-02-26T16:23:24;6.83;;;4.00;;
15132;SDS011;7667;51.232;17.110;2023-02-26T16:26:19;9.60;;;5.93;;
15132;SDS011;7667;51.232;17.110;2023-02-26T16:28:52;8.80;;;4.00;;
15132;SDS011;7667;51.232;17.110;2023-02-26T16:31:29;5.90;;;3.87;;
15132;SDS011;7667;51.232;17.110;2023-02-26T16:34:04;6.93;;;4.07;;
15132;SDS011;7667;51.232;17.110;2023-02-26T16:36:48;6.87;;;3.90;;
15132;SDS011;7667;51.232;17.110;2023-02-26T16:39:24;5.23;;;3.30;;
15132;SDS011;7667;51.232;17.110;2023-02-26T16:42:01;6.97;;;4.20;;
15132;SDS011;7667;51.232;17.110;2023-02-26T16:44:37;5.10;;;3.23;;
15132;SDS011;7667;51.232;17.110;2023-02-26T16:47:19;7.10;;;4.70;;
15132;SDS011;7667;51.232;17.110;2023-02-26T16:49:51;7.50;;;3.50;;
15132;SDS011;7667;51.232;17.110;2023-02-26T16:52:21;6.67;;;4.03;;
15132;SDS011;7667;51.232;17.110;2023-02-26T16:54:53;5.63;;;3.33;;
15132;SDS011;7667;51.232;17.110;2023-02-26T16:57:33;6.57;;;3.93;;
15132;SDS011;7667;51.232;17.110;2023-02-26T17:00:06;5.57;;;3.60;;
15132;SDS011;7667;51.232;17.110;2023-02-26T17:02:44;5.27;;;3.80;;
15132;SDS011;7667;51.232;17.110;2023-02-26T17:07:45;5.57;;;3.80;;
15132;SDS011;7667;51.232;17.110;2023-02-26T17:10:23;4.83;;;2.90;;
15132;SDS011;7667;51.232;17.110;2023-02-26T17:13:25;8.83;;;3.50;;
15132;SDS011;7667;51.232;17.110;2023-02-26T17:15:57;6.43;;;3.57;;
15132;SDS011;7667;51.232;17.110;2023-02-26T17:18:28;12.43;;;6.83;;
15132;SDS011;7667;51.232;17.110;2023-02-26T17:20:57;22.37;;;10.20;;
15132;SDS011;7667;51.232;17.110;2023-02-26T17:23:31;23.10;;;11.37;;
15132;SDS011;7667;51.232;17.110;2023-02-26T17:26:03;10.00;;;6.07;;
15132;SDS011;7667;51.232;17.110;2023-02-26T17:28:32;7.73;;;4.77;;
15132;SDS011;7667;51.232;17.110;2023-02-26T17:31:05;8.30;;;5.00;;
15132;SDS011;7667;51.232;17.110;2023-02-26T17:33:33;8.53;;;5.33;;
15132;SDS011;7667;51.232;17.110;2023-02-26T17:36:02;10.67;;;6.83;;
15132;SDS011;7667;51.232;17.110;2023-02-26T17:38:31;20.57;;;10.37;;
15132;SDS011;7667;51.232;17.110;2023-02-26T17:41:01;13.00;;;7.80;;
15132;SDS011;7667;51.232;17.110;2023-02-26T17:43:29;16.07;;;9.27;;
15132;SDS011;7667;51.232;17.110;2023-02-26T17:45:58;10.97;;;5.93;;
15132;SDS011;7667;51.232;17.110;2023-02-26T17:48:26;13.50;;;7.03;;
15132;SDS011;7667;51.232;17.110;2023-02-26T17:50:54;11.23;;;5.80;;
15132;SDS011;7667;51.232;17.110;2023-02-26T17:53:23;13.20;;;7.07;;
15132;SDS011;7667;51.232;17.110;2023-02-26T17:55:59;9.77;;;5.73;;
15132;SDS011;7667;51.232;17.110;2023-02-26T17:58:27;9.17;;;5.20;;
15132;SDS011;7667;51.232;17.110;2023-02-26T18:01:01;15.40;;;7.80;;
15132;SDS011;7667;51.232;17.110;2023-02-26T18:03:30;11.70;;;6.57;;
15132;SDS011;7667;51.232;17.110;2023-02-26T18:06:01;12.03;;;6.20;;
15132;SDS011;7667;51.232;17.110;2023-02-26T18:08:32;8.90;;;5.50;;
15132;SDS011;7667;51.232;17.110;2023-02-26T18:11:00;8.90;;;5.37;;
15132;SDS011;7667;51.232;17.110;2023-02-26T18:13:29;7.87;;;4.63;;
15132;SDS011;7667;51.232;17.110;2023-02-26T18:15:58;6.67;;;3.30;;
15132;SDS011;7667;51.232;17.110;2023-02-26T18:18:28;9.23;;;4.07;;
15132;SDS011;7667;51.232;17.110;2023-02-26T18:20:57;6.47;;;4.00;;
15132;SDS011;7667;51.232;17.110;2023-02-26T18:23:26;5.77;;;3.40;;
15132;SDS011;7667;51.232;17.110;2023-02-26T18:25:53;6.47;;;3.30;;
15132;SDS011;7667;51.232;17.110;2023-02-26T18:28:23;5.80;;;3.23;;
15132;SDS011;7667;51.232;17.110;2023-02-26T18:30:53;6.53;;;3.33;;
15132;SDS011;7667;51.232;17.110;2023-02-26T18:33:22;18.40;;;8.00;;
15132;SDS011;7667;51.232;17.110;2023-02-26T18:35:52;20.53;;;8.63;;
15132;SDS011;7667;51.232;17.110;2023-02-26T18:38:23;10.57;;;5.97;;
15132;SDS011;7667;51.232;17.110;2023-02-26T18:40:53;12.10;;;6.67;;
15132;SDS011;7667;51.232;17.110;2023-02-26T18:43:21;8.83;;;4.90;;
15132;SDS011;7667;51.232;17.110;2023-02-26T18:45:49;8.83;;;4.53;;
15132;SDS011;7667;51.232;17.110;2023-02-26T18:48:18;11.13;;;6.20;;